Terminal Aerodrome Forecast
Issued by NWS

Home | Current Version | Previous Version | Text Only | Print | Product List | Glossary On
Versions: 1 2 3 4 5 6 7 8 9 10 11 12 13 14 15 16
711
FTUS46 KMFR 172026 AAA
TAFRBG
TAF AMD
KRBG 172026Z 1720/1818 01008G15KT 5SM HZ FU FEW030
     FM180500 01004KT 4SM HZ SKC=

USA.gov is the U.S. government's official web portal to all federal, state and local government web resources and services.